Time;durP1;ratioP1;P1;durP2;ratioP2;P2;SDS_P1;SDS_P2;PMS_P1;PMS_P2;Temp;Humidity;BMP_temperature;BMP_pressure;BME280_temperature;BME280_humidity;BME280_pressure;Samples;Min_cycle;Max_cycle;Signal;HPM_P1;HPM_P2
2022/10/29 00:01:18;;;;;;;7.55;4.30;;;18.90;70.30;;;;;;5022310;28;20044;-52
2022/10/29 00:03:47;;;;;;;12.80;5.25;;;18.90;70.20;;;;;;5022761;28;20516;-51
2022/10/29 00:06:18;;;;;;;8.85;5.05;;;19.00;70.40;;;;;;5025059;28;20044;-52
2022/10/29 00:08:45;;;;;;;8.25;4.90;;;18.90;70.40;;;;;;5033424;28;20037;-51
2022/10/29 00:11:14;;;;;;;6.90;4.93;;;18.90;70.40;;;;;;5014612;28;20055;-52
2022/10/29 00:13:49;;;;;;;11.20;5.78;;;19.00;70.60;;;;;;5026114;28;20037;-49
2022/10/29 00:16:18;;;;;;;10.07;4.55;;;19.00;70.60;;;;;;5029375;28;20519;-49
2022/10/29 00:18:47;;;;;;;9.95;5.22;;;19.00;70.50;;;;;;5013387;28;20490;-52
2022/10/29 00:21:16;;;;;;;9.30;5.07;;;19.00;70.50;;;;;;5012201;28;20034;-49
2022/10/29 00:23:43;;;;;;;5.90;4.88;;;19.00;70.50;;;;;;5023196;28;20042;-52
2022/10/29 00:26:13;;;;;;;12.43;5.03;;;19.00;70.40;;;;;;5027385;28;20453;-48
2022/10/29 00:28:45;;;;;;;10.07;5.57;;;19.10;70.40;;;;;;5016923;28;20470;-52
2022/10/29 00:31:17;;;;;;;9.70;4.82;;;19.10;70.50;;;;;;5019919;28;20045;-51
2022/10/29 00:33:46;;;;;;;10.52;5.53;;;19.10;70.60;;;;;;5024597;28;20079;-49
2022/10/29 00:36:23;;;;;;;7.57;4.70;;;19.00;70.40;;;;;;5032905;28;20114;-53
2022/10/29 00:38:50;;;;;;;9.40;4.57;;;19.10;70.30;;;;;;5017579;28;20038;-48
2022/10/29 00:41:20;;;;;;;6.88;4.38;;;19.00;70.10;;;;;;5024339;28;20029;-50
2022/10/29 00:44:13;;;;;;;8.48;5.22;;;19.00;70.20;;;;;;5032636;28;20042;-49
2022/10/29 00:46:46;;;;;;;7.50;5.47;;;19.00;70.30;;;;;;5013550;28;20076;-52
2022/10/29 00:49:15;;;;;;;11.50;5.78;;;19.00;70.50;;;;;;5018251;28;20072;-52
2022/10/29 00:51:50;;;;;;;6.70;4.75;;;19.00;69.90;;;;;;5021588;28;20064;-48
2022/10/29 00:54:20;;;;;;;8.25;5.15;;;18.90;69.90;;;;;;5032109;28;20072;-52
2022/10/29 00:56:52;;;;;;;6.72;4.93;;;18.90;69.70;;;;;;5015661;28;20502;-50
2022/10/29 00:59:19;;;;;;;10.38;4.50;;;18.90;69.80;;;;;;5014353;28;20045;-47
2022/10/29 01:01:49;;;;;;;8.30;4.93;;;18.80;69.70;;;;;;5015957;28;20502;-49
2022/10/29 01:04:19;;;;;;;8.88;5.15;;;18.80;70.00;;;;;;5012132;28;20079;-51
2022/10/29 01:06:47;;;;;;;7.07;4.55;;;18.80;70.00;;;;;;5013292;28;20391;-48
2022/10/29 01:09:14;;;;;;;8.52;4.70;;;18.80;70.00;;;;;;5018022;28;20034;-48
2022/10/29 01:12:07;;;;;;;9.13;4.88;;;18.80;70.00;;;;;;5022529;28;20552;-48
2022/10/29 01:15:04;;;;;;;7.93;6.07;;;18.80;70.20;;;;;;5019378;28;20093;-48
2022/10/29 01:17:52;;;;;;;9.02;5.03;;;18.80;70.30;;;;;;5020879;28;20034;-50
2022/10/29 01:20:33;;;;;;;11.52;5.60;;;18.70;70.70;;;;;;5032029;28;20041;-49
2022/10/29 01:23:18;;;;;;;14.20;5.80;;;18.70;69.90;;;;;;5020023;28;20044;-46
2022/10/29 01:26:29;;;;;;;11.70;5.60;;;18.70;70.30;;;;;;5010892;28;20048;-52
2022/10/29 01:29:17;;;;;;;10.27;5.20;;;18.60;70.60;;;;;;5009220;28;20450;-48
2022/10/29 01:31:43;;;;;;;9.43;5.13;;;18.60;70.10;;;;;;5031771;28;20041;-51
2022/10/29 01:34:34;;;;;;;10.25;6.05;;;18.60;70.00;;;;;;5024361;28;20030;-50
2022/10/29 01:37:13;;;;;;;8.68;5.30;;;18.50;70.40;;;;;;5021800;28;20045;-52
2022/10/29 01:40:01;;;;;;;12.18;5.47;;;18.50;70.50;;;;;;5025708;28;20041;-53
2022/10/29 01:42:45;;;;;;;9.55;4.93;;;18.50;70.60;;;;;;5023361;28;20116;-48
2022/10/29 01:45:28;;;;;;;7.97;5.28;;;18.50;70.50;;;;;;5014032;28;20462;-51
2022/10/29 01:48:03;;;;;;;9.38;5.00;;;18.40;70.40;;;;;;5003957;28;20037;-50
2022/10/29 01:50:35;;;;;;;7.43;5.70;;;18.40;70.10;;;;;;5031467;28;20042;-48
2022/10/29 01:53:03;;;;;;;8.00;4.38;;;18.40;70.00;;;;;;5021648;28;20465;-48
2022/10/29 01:55:37;;;;;;;8.70;5.55;;;18.40;70.50;;;;;;5022539;28;20513;-50
2022/10/29 01:58:05;;;;;;;8.52;4.75;;;18.30;69.80;;;;;;5018693;28;20049;-52
2022/10/29 02:00:57;;;;;;;7.72;4.97;;;18.30;69.80;;;;;;5008603;28;20073;-48
2022/10/29 02:03:57;;;;;;;9.02;5.03;;;18.30;70.00;;;;;;5005125;28;20041;-49
2022/10/29 02:06:44;;;;;;;7.43;5.03;;;18.20;69.90;;;;;;5016456;28;20038;-48
2022/10/29 02:09:30;;;;;;;7.88;5.15;;;18.20;69.90;;;;;;5030126;28;20047;-50
2022/10/29 02:12:03;;;;;;;9.43;5.40;;;18.20;69.70;;;;;;5016604;28;20035;-51
2022/10/29 02:14:51;;;;;;;12.32;4.97;;;18.10;69.60;;;;;;5017037;28;20037;-48
2022/10/29 02:17:23;;;;;;;7.63;4.53;;;18.10;69.90;;;;;;5012024;28;20034;-47
2022/10/29 02:19:50;;;;;;;7.68;4.45;;;18.10;69.80;;;;;;5011097;28;20414;-51
2022/10/29 02:22:20;;;;;;;8.85;4.65;;;18.00;69.80;;;;;;5008028;28;20040;-49
2022/10/29 02:24:48;;;;;;;13.13;5.80;;;18.00;69.70;;;;;;5019422;28;20044;-50
2022/10/29 02:27:14;;;;;;;9.90;4.75;;;18.00;69.90;;;;;;5017040;28;20124;-47
2022/10/29 02:29:42;;;;;;;11.85;5.38;;;17.90;69.90;;;;;;5009747;28;20050;-51
2022/10/29 02:32:10;;;;;;;6.60;4.50;;;17.90;70.00;;;;;;5025341;28;20048;-48
2022/10/29 02:34:39;;;;;;;8.32;4.35;;;18.00;70.00;;;;;;5025110;28;20490;-51
2022/10/29 02:37:06;;;;;;;7.82;5.47;;;17.90;70.00;;;;;;5030327;28;20561;-52
2022/10/29 02:39:33;;;;;;;7.57;4.95;;;17.90;70.10;;;;;;5020293;28;20038;-48
2022/10/29 02:42:05;;;;;;;7.40;5.22;;;17.90;70.20;;;;;;5014395;28;20048;-48
2022/10/29 02:44:31;;;;;;;9.02;4.55;;;17.90;70.20;;;;;;5021843;28;20045;-49
2022/10/29 02:46:58;;;;;;;11.85;5.32;;;17.90;70.30;;;;;;5030847;28;20041;-48
2022/10/29 02:49:26;;;;;;;10.57;5.13;;;17.90;70.40;;;;;;5016777;28;20485;-51
2022/10/29 02:51:53;;;;;;;8.90;4.65;;;17.90;70.40;;;;;;5020319;28;20517;-49
2022/10/29 02:54:21;;;;;;;6.07;4.65;;;17.90;70.50;;;;;;4991197;28;20101;-52
2022/10/29 02:56:48;;;;;;;11.02;5.60;;;17.80;70.40;;;;;;4993802;28;20038;-51
2022/10/29 02:59:15;;;;;;;11.65;4.97;;;17.80;70.50;;;;;;5005085;28;20682;-51
2022/10/29 03:01:41;;;;;;;7.53;5.40;;;17.80;70.50;;;;;;5019623;28;20052;-52
2022/10/29 03:04:10;;;;;;;8.35;4.88;;;17.90;70.70;;;;;;5022118;28;20049;-47
2022/10/29 03:06:37;;;;;;;8.85;5.43;;;17.80;70.70;;;;;;5027305;28;20046;-50
2022/10/29 03:09:05;;;;;;;9.70;5.95;;;17.80;70.80;;;;;;5014341;28;20089;-49
2022/10/29 03:11:32;;;;;;;14.43;5.90;;;17.90;70.90;;;;;;5022079;28;20526;-49
2022/10/29 03:13:59;;;;;;;10.43;5.45;;;17.90;71.00;;;;;;5030109;28;20103;-49
2022/10/29 03:16:28;;;;;;;10.13;6.07;;;17.90;71.00;;;;;;5016094;28;20120;-48
2022/10/29 03:18:55;;;;;;;12.63;5.25;;;17.90;71.00;;;;;;5014808;28;20064;-50
2022/10/29 03:21:29;;;;;;;9.93;5.40;;;17.90;71.10;;;;;;5023696;28;20045;-51
2022/10/29 03:23:57;;;;;;;10.25;5.72;;;17.90;71.10;;;;;;5031185;28;20494;-48
2022/10/29 03:26:34;;;;;;;12.80;5.30;;;17.90;71.00;;;;;;5032806;28;20055;-52
2022/10/29 03:29:02;;;;;;;8.82;5.85;;;17.90;71.00;;;;;;5010915;28;20545;-48
2022/10/29 03:31:38;;;;;;;9.73;5.25;;;17.90;70.80;;;;;;5022396;28;20096;-50
2022/10/29 03:34:08;;;;;;;10.82;5.75;;;17.80;70.70;;;;;;5014354;28;20100;-50
2022/10/29 03:36:37;;;;;;;9.10;5.25;;;17.80;70.80;;;;;;5011309;28;20041;-51
2022/10/29 03:39:04;;;;;;;6.90;5.15;;;17.80;70.80;;;;;;5014973;28;20060;-49
2022/10/29 03:41:34;;;;;;;9.63;5.68;;;17.80;70.80;;;;;;5025660;28;20037;-52
2022/10/29 03:44:04;;;;;;;10.05;5.05;;;17.80;71.00;;;;;;5031585;28;20124;-51
2022/10/29 03:46:31;;;;;;;8.70;5.50;;;17.80;71.20;;;;;;5011779;28;20529;-52
2022/10/29 03:48:58;;;;;;;7.82;5.15;;;17.80;71.20;;;;;;5022719;28;20042;-52
2022/10/29 03:51:30;;;;;;;7.68;5.47;;;17.80;71.30;;;;;;5033290;28;20064;-49
2022/10/29 03:54:00;;;;;;;8.57;4.90;;;17.80;71.30;;;;;;5017670;28;20050;-49
2022/10/29 03:56:27;;;;;;;9.40;6.03;;;17.80;71.50;;;;;;5016888;28;20390;-53
2022/10/29 03:58:54;;;;;;;9.65;5.93;;;17.80;71.40;;;;;;5013734;28;20056;-50
2022/10/29 04:01:21;;;;;;;11.20;4.80;;;17.80;71.40;;;;;;5013732;28;20038;-50
2022/10/29 04:03:48;;;;;;;8.13;5.20;;;17.80;71.40;;;;;;5011812;28;20042;-51
2022/10/29 04:06:19;;;;;;;11.27;6.22;;;17.80;71.40;;;;;;5028207;28;20088;-50
2022/10/29 04:08:48;;;;;;;8.75;5.97;;;17.80;72.10;;;;;;5028840;28;20044;-50
2022/10/29 04:11:21;;;;;;;10.88;6.93;;;17.80;71.30;;;;;;5021244;28;20041;-48
2022/10/29 04:13:51;;;;;;;11.27;6.15;;;17.80;71.20;;;;;;5018321;28;20045;-48
2022/10/29 04:16:20;;;;;;;10.45;5.38;;;17.80;71.20;;;;;;5018708;28;20111;-51
2022/10/29 04:18:52;;;;;;;9.07;5.82;;;17.80;71.00;;;;;;5033290;28;20509;-47
2022/10/29 04:21:19;;;;;;;11.00;6.20;;;17.80;71.00;;;;;;5032989;28;20116;-48
2022/10/29 04:24:08;;;;;;;9.55;5.45;;;17.80;70.90;;;;;;4999075;28;20046;-50
2022/10/29 04:26:59;;;;;;;10.52;6.38;;;17.80;70.80;;;;;;5022936;28;20045;-49
2022/10/29 04:29:46;;;;;;;8.20;5.50;;;17.70;70.70;;;;;;5028340;28;20053;-48
2022/10/29 04:32:13;;;;;;;8.20;5.28;;;17.70;70.60;;;;;;5032469;28;20412;-49
2022/10/29 04:34:42;;;;;;;11.27;6.15;;;17.70;70.70;;;;;;5014547;28;20473;-50
2022/10/29 04:37:12;;;;;;;8.20;5.63;;;17.70;70.90;;;;;;5020749;28;20457;-52
2022/10/29 04:39:42;;;;;;;9.05;5.22;;;17.60;70.90;;;;;;5020615;28;20052;-53
2022/10/29 04:42:08;;;;;;;10.00;5.72;;;17.70;71.20;;;;;;5011409;28;20052;-48
2022/10/29 04:44:37;;;;;;;11.98;6.20;;;17.60;71.20;;;;;;5011880;28;20026;-48
2022/10/29 04:47:04;;;;;;;8.18;5.57;;;17.60;71.20;;;;;;5022053;28;20046;-49
2022/10/29 04:49:31;;;;;;;12.20;5.30;;;17.60;71.20;;;;;;5032333;28;20042;-53
2022/10/29 04:51:58;;;;;;;10.00;5.78;;;17.60;71.10;;;;;;5014951;28;20481;-48
2022/10/29 04:54:30;;;;;;;8.38;5.63;;;17.60;71.00;;;;;;5011891;28;20128;-49
2022/10/29 04:56:59;;;;;;;12.93;5.63;;;17.60;71.00;;;;;;5024192;28;20120;-48
2022/10/29 04:59:26;;;;;;;11.20;5.78;;;17.60;70.90;;;;;;5032537;28;20076;-48
2022/10/29 05:01:55;;;;;;;12.65;5.30;;;17.60;70.90;;;;;;5013903;28;20038;-52
2022/10/29 05:04:24;;;;;;;12.15;6.13;;;17.50;71.10;;;;;;5018918;28;20092;-52
2022/10/29 05:06:51;;;;;;;7.05;5.18;;;17.50;71.00;;;;;;5013722;28;20038;-50
2022/10/29 05:09:20;;;;;;;8.75;5.18;;;17.50;71.10;;;;;;5011160;28;20042;-52
2022/10/29 05:11:47;;;;;;;9.30;5.18;;;17.50;71.30;;;;;;5012326;28;20048;-53
2022/10/29 05:14:15;;;;;;;10.68;5.75;;;17.50;72.10;;;;;;5016563;28;20049;-47
2022/10/29 05:16:42;;;;;;;9.02;5.70;;;17.50;71.70;;;;;;5012056;28;20073;-48
2022/10/29 05:19:09;;;;;;;8.57;5.45;;;17.60;71.80;;;;;;5012373;28;20125;-48
2022/10/29 05:21:35;;;;;;;7.38;5.60;;;17.60;72.00;;;;;;5015129;28;20038;-53
2022/10/29 05:24:07;;;;;;;11.50;6.32;;;17.60;72.00;;;;;;5021936;28;20080;-52
2022/10/29 05:26:37;;;;;;;7.97;4.97;;;17.60;72.10;;;;;;5031986;28;20038;-51
2022/10/29 05:29:04;;;;;;;11.48;5.75;;;17.60;72.30;;;;;;5013734;28;20046;-48
2022/10/29 05:31:35;;;;;;;10.63;5.90;;;17.60;72.30;;;;;;5019907;28;20088;-51
2022/10/29 05:34:07;;;;;;;11.55;6.45;;;17.70;73.10;;;;;;5021474;28;20722;-47
2022/10/29 05:36:35;;;;;;;13.27;6.65;;;17.70;72.50;;;;;;5012106;28;20068;-49
2022/10/29 05:39:07;;;;;;;12.10;6.25;;;17.70;72.60;;;;;;5007989;28;20093;-48
2022/10/29 05:41:33;;;;;;;9.23;5.32;;;17.70;72.60;;;;;;5023370;28;20175;-48
2022/10/29 05:44:06;;;;;;;14.30;5.95;;;17.80;72.60;;;;;;5022570;28;20049;-50
2022/10/29 05:46:35;;;;;;;12.70;6.22;;;17.80;72.70;;;;;;5023374;28;20038;-52
2022/10/29 05:49:02;;;;;;;9.18;5.88;;;17.80;72.50;;;;;;5011729;28;20038;-48
2022/10/29 05:51:29;;;;;;;9.57;5.47;;;17.80;72.40;;;;;;5021788;28;20073;-51
2022/10/29 05:53:58;;;;;;;10.20;5.57;;;17.80;72.30;;;;;;5030089;28;20049;-50
2022/10/29 05:56:34;;;;;;;10.80;5.45;;;17.80;72.30;;;;;;5021053;28;20048;-48
2022/10/29 05:59:01;;;;;;;11.88;5.60;;;17.80;72.30;;;;;;5022730;28;20049;-52
2022/10/29 06:01:30;;;;;;;8.25;5.50;;;17.80;72.30;;;;;;5022819;28;20038;-47
2022/10/29 06:04:00;;;;;;;10.30;5.25;;;17.80;72.30;;;;;;5005894;28;20092;-50
2022/10/29 06:06:27;;;;;;;9.05;5.18;;;17.90;72.40;;;;;;5012823;28;20034;-50
2022/10/29 06:08:53;;;;;;;9.68;5.40;;;17.90;72.50;;;;;;5009356;28;20084;-52
2022/10/29 06:11:26;;;;;;;7.90;5.55;;;17.90;72.50;;;;;;5010887;28;20069;-53
2022/10/29 06:13:54;;;;;;;10.13;5.22;;;17.90;72.50;;;;;;5009758;28;20056;-53
2022/10/29 06:16:21;;;;;;;11.02;5.28;;;17.90;72.50;;;;;;5003265;28;20052;-49
2022/10/29 06:18:53;;;;;;;10.55;4.60;;;17.90;72.50;;;;;;5021048;28;20068;-53
2022/10/29 06:21:20;;;;;;;8.25;5.25;;;17.90;72.50;;;;;;5015968;28;20045;-52
2022/10/29 06:23:52;;;;;;;8.75;4.85;;;17.90;73.10;;;;;;5009655;28;20502;-49
2022/10/29 06:26:22;;;;;;;11.73;4.75;;;17.90;72.60;;;;;;5006139;28;20044;-49
2022/10/29 06:28:48;;;;;;;10.57;4.70;;;17.90;72.60;;;;;;5021506;28;20046;-52
2022/10/29 06:31:15;;;;;;;13.18;5.55;;;17.90;72.60;;;;;;5028634;28;20527;-52
2022/10/29 06:33:42;;;;;;;10.73;4.93;;;17.90;72.60;;;;;;5017844;28;20479;-53
2022/10/29 06:36:11;;;;;;;10.95;5.72;;;17.90;72.70;;;;;;4996861;28;20042;-52
2022/10/29 06:38:37;;;;;;;9.20;5.53;;;17.90;72.70;;;;;;5004878;28;20049;-51
2022/10/29 06:41:04;;;;;;;11.02;5.22;;;17.90;72.80;;;;;;5009627;28;20065;-52
2022/10/29 06:43:31;;;;;;;11.27;5.47;;;17.90;72.80;;;;;;5013640;28;20052;-49
2022/10/29 06:45:58;;;;;;;11.80;4.88;;;17.90;72.90;;;;;;5006319;28;20034;-51
2022/10/29 06:48:24;;;;;;;8.90;5.03;;;18.00;72.90;;;;;;5002771;28;20042;-49
2022/10/29 06:50:51;;;;;;;13.02;5.38;;;18.00;73.00;;;;;;5013694;28;20898;-51
2022/10/29 06:53:19;;;;;;;9.70;4.55;;;17.90;73.00;;;;;;5042921;22;20045;-48
2022/10/29 06:55:45;;;;;;;11.80;5.15;;;18.00;73.10;;;;;;5039769;28;20045;-48
2022/10/29 06:58:17;;;;;;;9.70;4.90;;;18.00;73.10;;;;;;5044306;28;20041;-52
2022/10/29 07:00:44;;;;;;;7.43;4.68;;;18.00;73.30;;;;;;5028911;28;20120;-48
2022/10/29 07:03:13;;;;;;;11.90;5.15;;;18.00;73.10;;;;;;5026884;28;20137;-50
2022/10/29 07:05:39;;;;;;;14.00;4.97;;;18.00;73.10;;;;;;5047218;28;20033;-49
2022/10/29 07:08:06;;;;;;;16.52;6.22;;;18.00;73.10;;;;;;5040859;28;20045;-53
2022/10/29 07:10:33;;;;;;;11.02;5.45;;;18.10;73.20;;;;;;5049322;28;20033;-53
2022/10/29 07:13:00;;;;;;;12.32;6.90;;;18.10;73.20;;;;;;5035175;28;20047;-53
2022/10/29 07:15:28;;;;;;;9.45;5.03;;;18.10;73.10;;;;;;5042033;28;20771;-52
2022/10/29 07:18:05;;;;;;;11.32;5.32;;;18.10;73.10;;;;;;5031282;28;20049;-53
2022/10/29 07:20:34;;;;;;;12.55;6.00;;;18.10;73.20;;;;;;5025892;28;20065;-53
2022/10/29 07:23:01;;;;;;;10.80;5.00;;;18.10;73.00;;;;;;5025991;28;20478;-53
2022/10/29 07:25:28;;;;;;;11.98;5.20;;;18.10;72.90;;;;;;5028915;28;20497;-53
2022/10/29 07:28:02;;;;;;;11.80;5.38;;;18.10;72.80;;;;;;5045434;28;20045;-53
2022/10/29 07:30:29;;;;;;;8.68;5.55;;;18.10;73.00;;;;;;5041659;28;20553;-51
2022/10/29 07:32:56;;;;;;;10.45;5.82;;;18.10;72.90;;;;;;5041594;28;20086;-53
2022/10/29 07:35:22;;;;;;;12.02;5.60;;;18.10;72.90;;;;;;5041160;28;20072;-53
2022/10/29 07:37:56;;;;;;;12.00;5.80;;;18.20;73.00;;;;;;5048949;28;20144;-53
2022/10/29 07:40:23;;;;;;;12.07;5.23;;;18.20;73.10;;;;;;5039712;28;20096;-53
2022/10/29 07:42:53;;;;;;;8.25;4.70;;;18.20;73.10;;;;;;5041088;28;20144;-52
2022/10/29 07:45:21;;;;;;;15.57;5.53;;;18.20;73.40;;;;;;5032120;28;20120;-53
2022/10/29 07:47:48;;;;;;;9.27;4.65;;;18.20;73.30;;;;;;5036383;28;20064;-53
2022/10/29 07:50:17;;;;;;;11.75;5.40;;;18.20;73.30;;;;;;5022449;28;20413;-53
2022/10/29 07:52:44;;;;;;;13.43;5.50;;;18.30;73.40;;;;;;5036708;28;20045;-52
2022/10/29 07:55:10;;;;;;;10.70;4.85;;;18.30;73.40;;;;;;5047602;28;20049;-53
2022/10/29 07:57:39;;;;;;;12.18;6.40;;;18.40;73.60;;;;;;5034908;28;20068;-52
2022/10/29 08:00:06;;;;;;;14.63;5.53;;;18.40;73.60;;;;;;5028502;28;20068;-53
2022/10/29 08:02:38;;;;;;;13.50;6.13;;;18.40;73.50;;;;;;5040643;28;20045;-53
2022/10/29 08:05:05;;;;;;;9.45;4.72;;;18.50;73.40;;;;;;5047293;28;20401;-53
2022/10/29 08:07:31;;;;;;;9.27;5.55;;;18.60;73.30;;;;;;5040768;28;20037;-53
2022/10/29 08:10:00;;;;;;;5.65;4.30;;;18.60;73.20;;;;;;5044298;28;20476;-53
2022/10/29 08:12:27;;;;;;;11.55;5.15;;;18.70;73.10;;;;;;5044167;28;20127;-53
2022/10/29 08:14:53;;;;;;;9.77;5.10;;;18.70;73.00;;;;;;5052936;28;20540;-53
2022/10/29 08:17:20;;;;;;;7.00;4.43;;;18.80;72.80;;;;;;5034642;28;20051;-52
2022/10/29 08:19:49;;;;;;;8.05;4.97;;;18.80;72.70;;;;;;5036257;28;20143;-52
2022/10/29 08:22:17;;;;;;;12.00;5.55;;;18.80;72.50;;;;;;5042635;28;20030;-53
2022/10/29 08:24:46;;;;;;;11.30;4.28;;;18.90;72.40;;;;;;5052427;28;20037;-52
2022/10/29 08:27:13;;;;;;;11.38;5.32;;;18.90;72.30;;;;;;5034765;28;20053;-53
2022/10/29 08:29:39;;;;;;;8.75;4.80;;;18.90;72.20;;;;;;5042782;28;20052;-53
2022/10/29 08:32:06;;;;;;;8.73;4.18;;;19.00;72.20;;;;;;5035919;28;20121;-53
2022/10/29 08:34:33;;;;;;;8.07;4.43;;;19.00;72.10;;;;;;5040350;28;20049;-49
2022/10/29 08:37:03;;;;;;;9.10;4.72;;;19.10;72.10;;;;;;5029273;28;20108;-51
2022/10/29 08:39:34;;;;;;;10.65;4.88;;;19.10;72.10;;;;;;5031864;28;20583;-50
2022/10/29 08:42:26;;;;;;;7.95;4.50;;;19.10;72.00;;;;;;5027787;28;20053;-49
2022/10/29 08:45:22;;;;;;;8.70;4.25;;;19.20;72.10;;;;;;5039159;28;20076;-50
2022/10/29 08:48:08;;;;;;;9.82;4.18;;;19.20;72.00;;;;;;5035519;28;20056;-52
2022/10/29 08:50:44;;;;;;;10.02;5.00;;;19.30;72.00;;;;;;5043773;28;20116;-49
2022/10/29 08:53:24;;;;;;;11.15;4.72;;;19.30;71.80;;;;;;5040318;28;20046;-51
2022/10/29 08:55:57;;;;;;;5.53;4.10;;;19.30;71.80;;;;;;5021083;28;20056;-53
2022/10/29 08:58:49;;;;;;;16.35;5.03;;;19.30;71.70;;;;;;5029852;28;20029;-49
2022/10/29 09:01:17;;;;;;;7.00;5.00;;;19.40;72.00;;;;;;5034619;28;20553;-49
2022/10/29 09:03:44;;;;;;;8.20;4.88;;;19.40;71.80;;;;;;5028347;28;20049;-49
2022/10/29 09:06:21;;;;;;;7.72;4.35;;;19.40;71.80;;;;;;5033287;28;20065;-50
2022/10/29 09:09:07;;;;;;;12.38;4.18;;;19.50;71.90;;;;;;5030200;28;20033;-49
2022/10/29 09:11:43;;;;;;;9.77;4.30;;;19.50;71.80;;;;;;5034301;28;20033;-49
2022/10/29 09:14:42;;;;;;;9.10;4.53;;;19.50;71.70;;;;;;5029309;28;20044;-48
2022/10/29 09:17:37;;;;;;;6.93;4.10;;;19.70;71.80;;;;;;5045462;28;20060;-49
2022/10/29 09:20:49;;;;;;;9.73;4.57;;;19.70;71.80;;;;;;5051236;28;20505;-48
2022/10/29 09:23:24;;;;;;;10.18;4.07;;;19.80;71.90;;;;;;5034330;28;20621;-52
2022/10/29 09:26:24;;;;;;;11.13;4.97;;;19.90;71.60;;;;;;5044491;28;20042;-49
2022/10/29 09:29:05;;;;;;;11.40;5.53;;;20.00;71.60;;;;;;5000209;28;20050;-49
2022/10/29 09:31:49;;;;;;;11.07;4.18;;;20.10;71.50;;;;;;5010887;28;20057;-50
2022/10/29 09:34:28;;;;;;;7.05;4.28;;;20.20;71.20;;;;;;5033863;28;20394;-49
2022/10/29 09:36:56;;;;;;;8.73;4.43;;;20.20;70.80;;;;;;5035422;28;20084;-50
2022/10/29 09:39:35;;;;;;;9.65;4.50;;;20.20;70.60;;;;;;5031308;28;20041;-48
2022/10/29 09:42:10;;;;;;;11.23;5.75;;;20.30;70.70;;;;;;5029362;28;20103;-51
2022/10/29 09:44:50;;;;;;;16.42;6.53;;;20.30;70.60;;;;;;5040775;28;20041;-48
2022/10/29 09:47:31;;;;;;;7.47;4.32;;;20.30;70.50;;;;;;5043054;28;20490;-50
2022/10/29 09:50:08;;;;;;;6.30;4.07;;;20.30;70.50;;;;;;5045138;28;20046;-50
2022/10/29 09:52:39;;;;;;;7.43;4.43;;;20.30;70.70;;;;;;5026847;28;20494;-51
2022/10/29 09:55:24;;;;;;;11.90;5.53;;;20.30;70.70;;;;;;5040471;28;20041;-49
2022/10/29 09:57:51;;;;;;;8.85;4.00;;;20.30;70.80;;;;;;5045677;28;20052;-49
2022/10/29 10:00:25;;;;;;;9.88;4.18;;;20.30;70.90;;;;;;5033754;28;20731;-50
2022/10/29 10:03:28;;;;;;;8.45;3.80;;;20.40;71.00;;;;;;5041170;28;20046;-50
2022/10/29 10:05:56;;;;;;;7.82;3.85;;;20.40;71.10;;;;;;5029651;28;20453;-48
2022/10/29 10:08:25;;;;;;;11.82;4.50;;;20.40;71.10;;;;;;5027613;28;20052;-49
2022/10/29 10:11:04;;;;;;;13.07;4.93;;;20.50;71.20;;;;;;5020924;28;20736;-52
2022/10/29 10:13:50;;;;;;;6.32;3.67;;;20.60;71.40;;;;;;5037937;28;20489;-49
2022/10/29 10:16:26;;;;;;;9.75;4.40;;;20.70;71.40;;;;;;5033039;28;20121;-49
2022/10/29 10:18:53;;;;;;;6.63;4.20;;;20.80;71.40;;;;;;5034792;28;20038;-49
2022/10/29 10:21:24;;;;;;;8.60;3.95;;;21.00;71.20;;;;;;5039799;28;20125;-49
2022/10/29 10:23:56;;;;;;;6.78;4.20;;;21.00;71.00;;;;;;5040262;28;20429;-49
2022/10/29 10:26:42;;;;;;;11.25;5.30;;;21.10;70.70;;;;;;5031373;28;20513;-49
2022/10/29 10:29:15;;;;;;;6.38;3.90;;;21.20;70.20;;;;;;5025542;28;20116;-48
2022/10/29 10:32:02;;;;;;;7.20;4.30;;;21.20;70.00;;;;;;5039026;28;20064;-48
2022/10/29 10:34:37;;;;;;;9.50;5.28;;;21.30;69.90;;;;;;5038332;28;20052;-48
2022/10/29 10:37:17;;;;;;;9.68;4.50;;;21.40;69.60;;;;;;5050718;28;20427;-50
2022/10/29 10:39:48;;;;;;;10.35;4.07;;;21.40;69.70;;;;;;5033522;28;20441;-53
2022/10/29 10:42:21;;;;;;;12.10;4.90;;;21.40;69.30;;;;;;5030801;28;20060;-49
2022/10/29 10:44:59;;;;;;;7.28;4.20;;;21.50;69.40;;;;;;5028635;28;20034;-52
2022/10/29 10:47:33;;;;;;;6.35;4.00;;;21.50;69.40;;;;;;5026689;28;20124;-52
2022/10/29 10:50:32;;;;;;;11.63;4.88;;;21.60;69.30;;;;;;5035866;28;20096;-49
2022/10/29 10:53:16;;;;;;;10.85;5.32;;;21.60;69.20;;;;;;5042605;28;20067;-49
2022/10/29 10:55:59;;;;;;;10.48;4.72;;;21.60;69.30;;;;;;5047087;28;20055;-51
2022/10/29 10:58:39;;;;;;;10.32;5.18;;;21.70;68.80;;;;;;5037468;28;20051;-50
2022/10/29 11:01:17;;;;;;;9.15;3.88;;;21.80;68.80;;;;;;5042467;28;20052;-50
2022/10/29 11:03:52;;;;;;;6.50;3.50;;;21.80;68.70;;;;;;5034853;28;20051;-52
2022/10/29 11:06:36;;;;;;;10.38;4.70;;;21.80;68.70;;;;;;5022059;28;20145;-49
2022/10/29 11:09:15;;;;;;;10.80;4.63;;;21.90;68.30;;;;;;5030207;28;20088;-51
2022/10/29 11:12:01;;;;;;;7.57;4.15;;;21.90;68.30;;;;;;5042478;28;20769;-49
2022/10/29 11:14:37;;;;;;;8.80;4.07;;;21.90;68.50;;;;;;5043461;28;20044;-50
2022/10/29 11:17:16;;;;;;;12.05;4.68;;;22.00;68.50;;;;;;5044635;28;20123;-49
2022/10/29 11:19:47;;;;;;;12.32;4.35;;;22.00;68.00;;;;;;5031867;28;20041;-50
2022/10/29 11:22:37;;;;;;;6.38;3.83;;;22.10;68.10;;;;;;5026774;28;20054;-51
2022/10/29 11:25:20;;;;;;;10.45;4.82;;;22.10;68.00;;;;;;5026161;28;20045;-50
2022/10/29 11:28:00;;;;;;;10.32;4.00;;;22.10;67.80;;;;;;5026930;28;20044;-49
2022/10/29 11:30:30;;;;;;;8.35;3.90;;;22.10;68.20;;;;;;5029205;28;20467;-52
2022/10/29 11:33:10;;;;;;;7.82;4.25;;;22.20;67.80;;;;;;5028894;28;20052;-49
2022/10/29 11:35:56;;;;;;;8.32;4.13;;;22.20;67.70;;;;;;5040381;28;20050;-49
2022/10/29 11:38:32;;;;;;;8.25;4.50;;;22.30;67.40;;;;;;5026550;28;20046;-49
2022/10/29 11:41:20;;;;;;;6.68;4.53;;;22.30;67.50;;;;;;5030178;28;20041;-50
2022/10/29 11:43:50;;;;;;;10.35;4.90;;;22.40;67.40;;;;;;5030576;28;20132;-49
2022/10/29 11:46:40;;;;;;;7.88;4.25;;;22.40;67.40;;;;;;5033150;28;20087;-49
2022/10/29 11:49:48;;;;;;;10.95;4.32;;;22.50;67.50;;;;;;5030191;28;20141;-50
2022/10/29 11:52:46;;;;;;;8.88;4.03;;;22.50;67.60;;;;;;5029797;28;20053;-50
2022/10/29 11:55:27;;;;;;;11.55;4.65;;;22.50;67.10;;;;;;5031664;28;20103;-49
2022/10/29 11:58:03;;;;;;;8.15;4.00;;;22.60;67.30;;;;;;5031035;28;20049;-52
2022/10/29 12:00:53;;;;;;;8.15;4.70;;;22.60;67.10;;;;;;5029624;28;20045;-49
2022/10/29 12:03:26;;;;;;;9.20;4.38;;;22.70;66.70;;;;;;5030099;28;20045;-53
2022/10/29 12:06:13;;;;;;;8.30;4.70;;;22.70;66.80;;;;;;5033473;28;20056;-49
2022/10/29 12:09:09;;;;;;;10.50;4.50;;;22.80;66.70;;;;;;5032426;28;20500;-50
2022/10/29 12:11:59;;;;;;;8.00;3.97;;;22.80;66.50;;;;;;5028312;28;20050;-51
2022/10/29 12:14:32;;;;;;;8.55;4.18;;;22.90;66.50;;;;;;5036688;28;20110;-50
2022/10/29 12:17:12;;;;;;;9.48;4.30;;;22.90;66.40;;;;;;5044785;28;20044;-50
2022/10/29 12:20:04;;;;;;;7.30;4.30;;;23.00;65.80;;;;;;5031742;28;20527;-50
2022/10/29 12:23:04;;;;;;;5.97;3.83;;;23.10;65.90;;;;;;5030061;28;20033;-49
2022/10/29 12:26:11;;;;;;;9.13;3.63;;;23.10;65.40;;;;;;5035045;28;20047;-50
2022/10/29 12:28:43;;;;;;;9.82;4.05;;;23.20;65.60;;;;;;5012516;28;20261;-49
2022/10/29 12:31:54;;;;;;;6.65;4.40;;;23.20;65.70;;;;;;5030214;28;20045;-50
2022/10/29 12:34:43;;;;;;;11.73;4.25;;;23.30;65.50;;;;;;5009242;28;20038;-50
2022/10/29 12:37:31;;;;;;;6.78;4.32;;;23.40;65.70;;;;;;5008614;28;20046;-50
2022/10/29 12:40:10;;;;;;;6.68;4.18;;;23.50;65.40;;;;;;5022976;28;20132;-50
2022/10/29 12:42:38;;;;;;;8.73;4.05;;;23.60;65.20;;;;;;5039392;28;20037;-52
2022/10/29 12:45:34;;;;;;;11.15;4.13;;;23.70;65.20;;;;;;5044331;28;20056;-50
2022/10/29 12:48:39;;;;;;;8.25;4.00;;;23.80;65.00;;;;;;5052373;28;20118;-49
2022/10/29 12:51:20;;;;;;;15.85;5.70;;;23.90;64.80;;;;;;5038993;28;20051;-53
2022/10/29 12:54:31;;;;;;;9.00;4.18;;;24.00;64.60;;;;;;5041643;28;20091;-53
2022/10/29 12:57:27;;;;;;;9.73;3.70;;;24.10;64.20;;;;;;5013057;28;20092;-51
2022/10/29 13:00:24;;;;;;;11.43;4.07;;;24.30;63.80;;;;;;5019179;28;20410;-50
2022/10/29 13:02:54;;;;;;;8.25;3.97;;;24.40;63.10;;;;;;5041193;28;20405;-50
2022/10/29 13:05:41;;;;;;;9.57;4.22;;;24.50;63.50;;;;;;5043674;28;20425;-49
2022/10/29 13:08:28;;;;;;;14.20;5.30;;;24.60;63.50;;;;;;5032256;28;20452;-53
2022/10/29 13:10:56;;;;;;;9.85;5.20;;;24.70;63.10;;;;;;5033403;28;20029;-50
2022/10/29 13:13:37;;;;;;;13.60;5.53;;;24.70;63.00;;;;;;5033147;28;20041;-49
2022/10/29 13:16:19;;;;;;;9.15;5.30;;;24.90;62.50;;;;;;5031759;28;20042;-50
2022/10/29 13:19:14;;;;;;;9.02;3.83;;;24.90;61.70;;;;;;5030062;28;20042;-52
2022/10/29 13:22:18;;;;;;;11.57;4.10;;;25.00;61.60;;;;;;5032283;28;20048;-51